sensor_id;sensor_type;location;lat;lon;timestamp;P1;durP1;ratioP1;P2;durP2;ratioP2
286;SDS011;127;48.770;9.212;2022-12-11T00:01:47;57.75;;;22.65;;
286;SDS011;127;48.770;9.212;2022-12-11T00:04:16;60.13;;;22.88;;
286;SDS011;127;48.770;9.212;2022-12-11T00:06:45;59.97;;;23.67;;
286;SDS011;127;48.770;9.212;2022-12-11T00:09:17;51.58;;;22.40;;
286;SDS011;127;48.770;9.212;2022-12-11T00:11:48;57.80;;;22.02;;
286;SDS011;127;48.770;9.212;2022-12-11T00:14:16;53.70;;;22.23;;
286;SDS011;127;48.770;9.212;2022-12-11T00:16:46;58.20;;;22.63;;
286;SDS011;127;48.770;9.212;2022-12-11T00:19:15;56.92;;;21.52;;
286;SDS011;127;48.770;9.212;2022-12-11T00:21:45;61.05;;;24.05;;
286;SDS011;127;48.770;9.212;2022-12-11T00:24:16;54.10;;;21.10;;
286;SDS011;127;48.770;9.212;2022-12-11T00:26:45;54.72;;;22.23;;
286;SDS011;127;48.770;9.212;2022-12-11T00:29:15;62.90;;;24.55;;
286;SDS011;127;48.770;9.212;2022-12-11T00:31:44;66.75;;;26.08;;
286;SDS011;127;48.770;9.212;2022-12-11T00:34:12;64.97;;;24.35;;
286;SDS011;127;48.770;9.212;2022-12-11T00:36:41;72.15;;;26.05;;
286;SDS011;127;48.770;9.212;2022-12-11T00:39:10;65.18;;;24.02;;
286;SDS011;127;48.770;9.212;2022-12-11T00:41:41;65.82;;;25.08;;
286;SDS011;127;48.770;9.212;2022-12-11T00:44:10;62.83;;;23.83;;
286;SDS011;127;48.770;9.212;2022-12-11T00:46:38;67.07;;;24.48;;
286;SDS011;127;48.770;9.212;2022-12-11T00:49:07;70.82;;;25.00;;
286;SDS011;127;48.770;9.212;2022-12-11T00:51:35;69.57;;;25.70;;
286;SDS011;127;48.770;9.212;2022-12-11T00:54:04;65.68;;;25.42;;
286;SDS011;127;48.770;9.212;2022-12-11T00:56:33;66.72;;;25.42;;
286;SDS011;127;48.770;9.212;2022-12-11T00:59:04;70.18;;;26.52;;
286;SDS011;127;48.770;9.212;2022-12-11T01:01:33;71.35;;;26.95;;
286;SDS011;127;48.770;9.212;2022-12-11T01:04:03;66.95;;;25.55;;
286;SDS011;127;48.770;9.212;2022-12-11T01:06:31;65.15;;;25.15;;
286;SDS011;127;48.770;9.212;2022-12-11T01:09:00;61.90;;;24.55;;
286;SDS011;127;48.770;9.212;2022-12-11T01:11:41;61.92;;;25.67;;
286;SDS011;127;48.770;9.212;2022-12-11T01:14:15;63.97;;;24.73;;
286;SDS011;127;48.770;9.212;2022-12-11T01:16:43;56.25;;;22.80;;
286;SDS011;127;48.770;9.212;2022-12-11T01:19:12;64.32;;;27.30;;
286;SDS011;127;48.770;9.212;2022-12-11T01:21:41;70.03;;;28.08;;
286;SDS011;127;48.770;9.212;2022-12-11T01:24:09;72.05;;;26.60;;
286;SDS011;127;48.770;9.212;2022-12-11T01:26:38;59.03;;;25.92;;
286;SDS011;127;48.770;9.212;2022-12-11T01:29:07;58.85;;;23.95;;
286;SDS011;127;48.770;9.212;2022-12-11T01:31:38;61.65;;;23.40;;
286;SDS011;127;48.770;9.212;2022-12-11T01:34:07;61.65;;;25.15;;
286;SDS011;127;48.770;9.212;2022-12-11T01:36:36;59.92;;;24.70;;
286;SDS011;127;48.770;9.212;2022-12-11T01:39:05;68.97;;;27.52;;
286;SDS011;127;48.770;9.212;2022-12-11T01:41:35;62.92;;;26.45;;
286;SDS011;127;48.770;9.212;2022-12-11T01:44:06;60.15;;;24.13;;
286;SDS011;127;48.770;9.212;2022-12-11T01:46:52;58.72;;;25.55;;
286;SDS011;127;48.770;9.212;2022-12-11T01:49:22;61.03;;;23.02;;
286;SDS011;127;48.770;9.212;2022-12-11T01:51:54;63.60;;;23.73;;
286;SDS011;127;48.770;9.212;2022-12-11T01:54:27;55.30;;;22.10;;
286;SDS011;127;48.770;9.212;2022-12-11T01:56:57;53.58;;;22.27;;
286;SDS011;127;48.770;9.212;2022-12-11T01:59:30;48.63;;;18.40;;
286;SDS011;127;48.770;9.212;2022-12-11T02:02:05;49.35;;;20.58;;
286;SDS011;127;48.770;9.212;2022-12-11T02:04:36;51.20;;;21.27;;
286;SDS011;127;48.770;9.212;2022-12-11T02:07:06;54.05;;;20.88;;
286;SDS011;127;48.770;9.212;2022-12-11T02:09:36;47.50;;;19.10;;
286;SDS011;127;48.770;9.212;2022-12-11T02:12:07;49.80;;;20.65;;
286;SDS011;127;48.770;9.212;2022-12-11T02:14:43;54.15;;;22.75;;
286;SDS011;127;48.770;9.212;2022-12-11T02:17:21;49.58;;;19.67;;
286;SDS011;127;48.770;9.212;2022-12-11T02:19:58;49.60;;;20.50;;
286;SDS011;127;48.770;9.212;2022-12-11T02:25:40;43.97;;;19.88;;
286;SDS011;127;48.770;9.212;2022-12-11T02:28:21;57.17;;;21.95;;
286;SDS011;127;48.770;9.212;2022-12-11T02:30:58;37.63;;;17.95;;
286;SDS011;127;48.770;9.212;2022-12-11T02:33:31;45.15;;;20.00;;
286;SDS011;127;48.770;9.212;2022-12-11T02:36:06;51.88;;;19.63;;
286;SDS011;127;48.770;9.212;2022-12-11T02:38:37;47.78;;;19.75;;
286;SDS011;127;48.770;9.212;2022-12-11T02:41:11;47.42;;;19.65;;
286;SDS011;127;48.770;9.212;2022-12-11T02:43:42;37.58;;;16.13;;
286;SDS011;127;48.770;9.212;2022-12-11T02:46:12;37.17;;;17.13;;
286;SDS011;127;48.770;9.212;2022-12-11T02:48:43;35.13;;;16.83;;
286;SDS011;127;48.770;9.212;2022-12-11T02:51:13;35.80;;;15.60;;
286;SDS011;127;48.770;9.212;2022-12-11T02:53:44;32.58;;;14.90;;
286;SDS011;127;48.770;9.212;2022-12-11T02:56:16;35.50;;;15.27;;
286;SDS011;127;48.770;9.212;2022-12-11T02:58:53;30.02;;;12.55;;
286;SDS011;127;48.770;9.212;2022-12-11T03:01:26;36.42;;;15.82;;
286;SDS011;127;48.770;9.212;2022-12-11T03:03:55;39.03;;;14.73;;
286;SDS011;127;48.770;9.212;2022-12-11T03:06:26;28.15;;;13.07;;
286;SDS011;127;48.770;9.212;2022-12-11T03:08:59;25.23;;;11.80;;
286;SDS011;127;48.770;9.212;2022-12-11T03:11:28;30.60;;;13.77;;
286;SDS011;127;48.770;9.212;2022-12-11T03:13:59;31.40;;;12.90;;
286;SDS011;127;48.770;9.212;2022-12-11T03:16:32;32.80;;;14.10;;
286;SDS011;127;48.770;9.212;2022-12-11T03:19:08;28.00;;;13.50;;
286;SDS011;127;48.770;9.212;2022-12-11T03:21:47;32.53;;;13.85;;
286;SDS011;127;48.770;9.212;2022-12-11T03:24:22;27.20;;;13.75;;
286;SDS011;127;48.770;9.212;2022-12-11T03:26:57;35.05;;;15.63;;
286;SDS011;127;48.770;9.212;2022-12-11T03:29:36;28.10;;;12.27;;
286;SDS011;127;48.770;9.212;2022-12-11T03:32:10;34.15;;;15.15;;
286;SDS011;127;48.770;9.212;2022-12-11T03:34:44;29.67;;;13.85;;
286;SDS011;127;48.770;9.212;2022-12-11T03:37:17;33.83;;;15.32;;
286;SDS011;127;48.770;9.212;2022-12-11T03:39:49;29.08;;;13.27;;
286;SDS011;127;48.770;9.212;2022-12-11T03:42:21;32.17;;;14.48;;
286;SDS011;127;48.770;9.212;2022-12-11T03:44:54;32.88;;;15.88;;
286;SDS011;127;48.770;9.212;2022-12-11T03:47:26;35.03;;;17.27;;
286;SDS011;127;48.770;9.212;2022-12-11T03:49:55;38.30;;;16.23;;
286;SDS011;127;48.770;9.212;2022-12-11T03:52:26;34.38;;;16.25;;
286;SDS011;127;48.770;9.212;2022-12-11T03:54:58;36.58;;;15.70;;
286;SDS011;127;48.770;9.212;2022-12-11T03:57:28;36.03;;;14.45;;
286;SDS011;127;48.770;9.212;2022-12-11T04:00:04;33.70;;;15.95;;
286;SDS011;127;48.770;9.212;2022-12-11T04:02:33;34.10;;;15.15;;
286;SDS011;127;48.770;9.212;2022-12-11T04:05:02;32.40;;;14.48;;
286;SDS011;127;48.770;9.212;2022-12-11T04:07:31;40.30;;;16.63;;
286;SDS011;127;48.770;9.212;2022-12-11T04:10:00;36.22;;;16.83;;
286;SDS011;127;48.770;9.212;2022-12-11T04:12:29;40.33;;;16.55;;
286;SDS011;127;48.770;9.212;2022-12-11T04:14:58;35.47;;;17.00;;
286;SDS011;127;48.770;9.212;2022-12-11T04:17:29;39.70;;;17.95;;
286;SDS011;127;48.770;9.212;2022-12-11T04:20:12;35.53;;;16.00;;
286;SDS011;127;48.770;9.212;2022-12-11T04:22:54;37.47;;;17.30;;
286;SDS011;127;48.770;9.212;2022-12-11T04:25:35;41.70;;;16.30;;
286;SDS011;127;48.770;9.212;2022-12-11T04:28:04;30.10;;;15.63;;
286;SDS011;127;48.770;9.212;2022-12-11T04:30:32;36.75;;;16.70;;
286;SDS011;127;48.770;9.212;2022-12-11T04:33:04;32.10;;;15.45;;
286;SDS011;127;48.770;9.212;2022-12-11T04:35:32;31.98;;;15.43;;
286;SDS011;127;48.770;9.212;2022-12-11T04:38:01;37.28;;;15.93;;
286;SDS011;127;48.770;9.212;2022-12-11T04:40:30;37.03;;;16.20;;
286;SDS011;127;48.770;9.212;2022-12-11T04:42:58;33.17;;;14.93;;
286;SDS011;127;48.770;9.212;2022-12-11T04:45:27;30.90;;;14.15;;
286;SDS011;127;48.770;9.212;2022-12-11T04:47:56;36.83;;;16.25;;
286;SDS011;127;48.770;9.212;2022-12-11T04:50:28;33.53;;;13.98;;
286;SDS011;127;48.770;9.212;2022-12-11T04:52:57;34.75;;;15.52;;
286;SDS011;127;48.770;9.212;2022-12-11T04:55:26;32.70;;;14.00;;
286;SDS011;127;48.770;9.212;2022-12-11T04:57:54;34.08;;;15.00;;
286;SDS011;127;48.770;9.212;2022-12-11T05:00:23;31.38;;;14.00;;
286;SDS011;127;48.770;9.212;2022-12-11T05:02:52;29.92;;;13.50;;
286;SDS011;127;48.770;9.212;2022-12-11T05:05:20;32.65;;;13.73;;
286;SDS011;127;48.770;9.212;2022-12-11T05:07:51;30.40;;;12.55;;
286;SDS011;127;48.770;9.212;2022-12-11T05:10:20;26.10;;;12.70;;
286;SDS011;127;48.770;9.212;2022-12-11T05:12:49;27.20;;;11.15;;
286;SDS011;127;48.770;9.212;2022-12-11T05:15:18;26.88;;;11.40;;
286;SDS011;127;48.770;9.212;2022-12-11T05:17:46;25.13;;;9.32;;
286;SDS011;127;48.770;9.212;2022-12-11T05:20:18;22.40;;;10.73;;
286;SDS011;127;48.770;9.212;2022-12-11T05:22:47;21.50;;;9.93;;
286;SDS011;127;48.770;9.212;2022-12-11T05:25:21;25.02;;;12.35;;
286;SDS011;127;48.770;9.212;2022-12-11T05:27:50;24.90;;;11.00;;
286;SDS011;127;48.770;9.212;2022-12-11T05:30:19;25.05;;;10.98;;
286;SDS011;127;48.770;9.212;2022-12-11T05:32:47;23.85;;;11.50;;
286;SDS011;127;48.770;9.212;2022-12-11T05:35:16;24.20;;;11.18;;
286;SDS011;127;48.770;9.212;2022-12-11T05:37:45;23.30;;;10.20;;
286;SDS011;127;48.770;9.212;2022-12-11T05:40:13;20.35;;;10.65;;
286;SDS011;127;48.770;9.212;2022-12-11T05:42:45;28.30;;;12.30;;
286;SDS011;127;48.770;9.212;2022-12-11T05:45:14;26.15;;;12.02;;
286;SDS011;127;48.770;9.212;2022-12-11T05:47:42;28.52;;;12.32;;
286;SDS011;127;48.770;9.212;2022-12-11T05:50:11;25.90;;;11.35;;
286;SDS011;127;48.770;9.212;2022-12-11T05:52:40;24.65;;;11.13;;
286;SDS011;127;48.770;9.212;2022-12-11T05:55:09;30.48;;;12.00;;
286;SDS011;127;48.770;9.212;2022-12-11T05:57:37;27.73;;;11.60;;
286;SDS011;127;48.770;9.212;2022-12-11T06:00:10;31.33;;;12.75;;
286;SDS011;127;48.770;9.212;2022-12-11T06:02:49;31.45;;;13.18;;
286;SDS011;127;48.770;9.212;2022-12-11T06:05:17;32.00;;;12.98;;
286;SDS011;127;48.770;9.212;2022-12-11T06:07:46;37.22;;;14.63;;
286;SDS011;127;48.770;9.212;2022-12-11T06:10:15;30.48;;;13.60;;
286;SDS011;127;48.770;9.212;2022-12-11T06:12:44;32.20;;;13.93;;
286;SDS011;127;48.770;9.212;2022-12-11T06:15:15;34.05;;;15.00;;
286;SDS011;127;48.770;9.212;2022-12-11T06:17:44;34.20;;;14.27;;
286;SDS011;127;48.770;9.212;2022-12-11T06:20:13;34.53;;;14.00;;
286;SDS011;127;48.770;9.212;2022-12-11T06:22:41;33.50;;;14.50;;
286;SDS011;127;48.770;9.212;2022-12-11T06:25:10;44.85;;;15.90;;
286;SDS011;127;48.770;9.212;2022-12-11T06:27:39;33.90;;;14.45;;
286;SDS011;127;48.770;9.212;2022-12-11T06:30:08;33.45;;;14.80;;
286;SDS011;127;48.770;9.212;2022-12-11T06:32:40;35.88;;;15.18;;
286;SDS011;127;48.770;9.212;2022-12-11T06:35:09;35.08;;;15.27;;
286;SDS011;127;48.770;9.212;2022-12-11T06:37:38;42.80;;;16.88;;
286;SDS011;127;48.770;9.212;2022-12-11T06:40:09;47.38;;;16.05;;
286;SDS011;127;48.770;9.212;2022-12-11T06:42:38;38.03;;;15.25;;
286;SDS011;127;48.770;9.212;2022-12-11T06:45:07;48.78;;;18.55;;
286;SDS011;127;48.770;9.212;2022-12-11T06:47:45;48.22;;;17.52;;
286;SDS011;127;48.770;9.212;2022-12-11T06:50:15;49.35;;;18.00;;
286;SDS011;127;48.770;9.212;2022-12-11T06:52:44;52.60;;;19.38;;
286;SDS011;127;48.770;9.212;2022-12-11T06:55:13;55.63;;;18.38;;
286;SDS011;127;48.770;9.212;2022-12-11T06:57:42;52.60;;;18.88;;
286;SDS011;127;48.770;9.212;2022-12-11T07:00:11;45.05;;;17.70;;
286;SDS011;127;48.770;9.212;2022-12-11T07:02:41;52.63;;;19.17;;
286;SDS011;127;48.770;9.212;2022-12-11T07:05:12;48.90;;;19.20;;
286;SDS011;127;48.770;9.212;2022-12-11T07:07:41;54.70;;;18.83;;
286;SDS011;127;48.770;9.212;2022-12-11T07:10:09;55.38;;;19.10;;
286;SDS011;127;48.770;9.212;2022-12-11T07:12:38;47.92;;;20.10;;
286;SDS011;127;48.770;9.212;2022-12-11T07:15:07;50.90;;;20.60;;
286;SDS011;127;48.770;9.212;2022-12-11T07:17:38;52.80;;;19.40;;
286;SDS011;127;48.770;9.212;2022-12-11T07:20:08;55.92;;;20.00;;
286;SDS011;127;48.770;9.212;2022-12-11T07:22:40;61.83;;;21.65;;
286;SDS011;127;48.770;9.212;2022-12-11T07:25:09;53.35;;;20.27;;
286;SDS011;127;48.770;9.212;2022-12-11T07:27:37;60.80;;;20.15;;
286;SDS011;127;48.770;9.212;2022-12-11T07:30:07;51.70;;;20.40;;
286;SDS011;127;48.770;9.212;2022-12-11T07:32:37;59.10;;;22.73;;
286;SDS011;127;48.770;9.212;2022-12-11T07:35:06;66.25;;;23.88;;
286;SDS011;127;48.770;9.212;2022-12-11T07:37:38;52.20;;;22.70;;
286;SDS011;127;48.770;9.212;2022-12-11T07:40:11;53.33;;;22.80;;
286;SDS011;127;48.770;9.212;2022-12-11T07:42:40;65.32;;;24.40;;
286;SDS011;127;48.770;9.212;2022-12-11T07:45:09;65.85;;;25.00;;
286;SDS011;127;48.770;9.212;2022-12-11T07:47:38;68.10;;;25.65;;
286;SDS011;127;48.770;9.212;2022-12-11T07:50:09;63.83;;;24.95;;
286;SDS011;127;48.770;9.212;2022-12-11T07:52:38;65.13;;;26.58;;
286;SDS011;127;48.770;9.212;2022-12-11T07:55:12;61.80;;;23.05;;
286;SDS011;127;48.770;9.212;2022-12-11T07:57:44;61.88;;;23.15;;
286;SDS011;127;48.770;9.212;2022-12-11T08:00:13;62.15;;;23.42;;
286;SDS011;127;48.770;9.212;2022-12-11T08:02:42;51.38;;;22.85;;
286;SDS011;127;48.770;9.212;2022-12-11T08:05:10;54.92;;;22.23;;
286;SDS011;127;48.770;9.212;2022-12-11T08:07:39;48.72;;;21.02;;
286;SDS011;127;48.770;9.212;2022-12-11T08:10:08;51.65;;;21.55;;
286;SDS011;127;48.770;9.212;2022-12-11T08:12:40;53.92;;;21.45;;
286;SDS011;127;48.770;9.212;2022-12-11T08:15:10;46.88;;;20.15;;
286;SDS011;127;48.770;9.212;2022-12-11T08:17:38;54.63;;;20.27;;
286;SDS011;127;48.770;9.212;2022-12-11T08:20:07;43.55;;;18.25;;
286;SDS011;127;48.770;9.212;2022-12-11T08:22:37;42.05;;;17.80;;
286;SDS011;127;48.770;9.212;2022-12-11T08:25:06;43.38;;;17.10;;
286;SDS011;127;48.770;9.212;2022-12-11T08:27:38;38.38;;;16.95;;
286;SDS011;127;48.770;9.212;2022-12-11T08:30:07;34.55;;;16.42;;
286;SDS011;127;48.770;9.212;2022-12-11T08:32:36;34.25;;;16.15;;
286;SDS011;127;48.770;9.212;2022-12-11T08:35:05;30.02;;;14.35;;
286;SDS011;127;48.770;9.212;2022-12-11T08:37:35;29.98;;;14.88;;
286;SDS011;127;48.770;9.212;2022-12-11T08:40:07;31.42;;;14.55;;
286;SDS011;127;48.770;9.212;2022-12-11T08:42:40;35.15;;;16.30;;
286;SDS011;127;48.770;9.212;2022-12-11T08:45:09;40.17;;;18.88;;
286;SDS011;127;48.770;9.212;2022-12-11T08:47:38;36.17;;;15.52;;
286;SDS011;127;48.770;9.212;2022-12-11T08:50:07;35.80;;;16.52;;
286;SDS011;127;48.770;9.212;2022-12-11T08:52:37;32.60;;;13.88;;
286;SDS011;127;48.770;9.212;2022-12-11T08:55:06;35.55;;;14.25;;
286;SDS011;127;48.770;9.212;2022-12-11T08:57:37;35.40;;;16.15;;
286;SDS011;127;48.770;9.212;2022-12-11T09:00:10;34.10;;;15.88;;
286;SDS011;127;48.770;9.212;2022-12-11T09:02:40;45.92;;;19.63;;
286;SDS011;127;48.770;9.212;2022-12-11T09:05:09;44.88;;;17.77;;
286;SDS011;127;48.770;9.212;2022-12-11T09:07:51;37.35;;;15.70;;
286;SDS011;127;48.770;9.212;2022-12-11T09:10:20;46.30;;;18.75;;
286;SDS011;127;48.770;9.212;2022-12-11T09:12:52;41.70;;;15.98;;
286;SDS011;127;48.770;9.212;2022-12-11T09:15:20;38.15;;;17.25;;
286;SDS011;127;48.770;9.212;2022-12-11T09:17:49;43.50;;;19.05;;
286;SDS011;127;48.770;9.212;2022-12-11T09:20:18;42.97;;;17.00;;
286;SDS011;127;48.770;9.212;2022-12-11T09:22:59;38.90;;;16.48;;
286;SDS011;127;48.770;9.212;2022-12-11T09:28:49;38.58;;;16.95;;
286;SDS011;127;48.770;9.212;2022-12-11T09:31:22;44.22;;;18.10;;
286;SDS011;127;48.770;9.212;2022-12-11T09:33:53;38.78;;;15.88;;
286;SDS011;127;48.770;9.212;2022-12-11T09:36:26;40.03;;;16.92;;
286;SDS011;127;48.770;9.212;2022-12-11T09:38:58;47.55;;;18.00;;
286;SDS011;127;48.770;9.212;2022-12-11T09:41:36;32.72;;;14.85;;
286;SDS011;127;48.770;9.212;2022-12-11T09:50:06;36.30;;;16.17;;
286;SDS011;127;48.770;9.212;2022-12-11T09:52:45;33.80;;;16.25;;
286;SDS011;127;48.770;9.212;2022-12-11T09:55:24;38.30;;;17.13;;
286;SDS011;127;48.770;9.212;2022-12-11T09:58:00;41.20;;;19.15;;
286;SDS011;127;48.770;9.212;2022-12-11T10:00:37;37.20;;;16.98;;
286;SDS011;127;48.770;9.212;2022-12-11T10:03:24;41.35;;;17.77;;
286;SDS011;127;48.770;9.212;2022-12-11T10:06:02;31.60;;;14.85;;
286;SDS011;127;48.770;9.212;2022-12-11T10:08:42;32.60;;;15.98;;
286;SDS011;127;48.770;9.212;2022-12-11T10:11:21;32.22;;;14.85;;
286;SDS011;127;48.770;9.212;2022-12-11T10:14:05;34.35;;;16.88;;
286;SDS011;127;48.770;9.212;2022-12-11T10:16:44;34.90;;;17.83;;
286;SDS011;127;48.770;9.212;2022-12-11T10:19:18;37.47;;;16.77;;
286;SDS011;127;48.770;9.212;2022-12-11T10:21:49;41.90;;;18.15;;
286;SDS011;127;48.770;9.212;2022-12-11T10:24:20;37.60;;;16.73;;
286;SDS011;127;48.770;9.212;2022-12-11T10:26:54;33.00;;;15.60;;
286;SDS011;127;48.770;9.212;2022-12-11T10:29:25;31.38;;;16.30;;
286;SDS011;127;48.770;9.212;2022-12-11T11:00:38;32.67;;;16.02;;
286;SDS011;127;48.770;9.212;2022-12-11T11:03:17;37.90;;;17.63;;
286;SDS011;127;48.770;9.212;2022-12-11T11:05:49;39.00;;;17.70;;
286;SDS011;127;48.770;9.212;2022-12-11T11:08:28;38.38;;;17.13;;
286;SDS011;127;48.770;9.212;2022-12-11T11:11:12;31.42;;;14.93;;
286;SDS011;127;48.770;9.212;2022-12-11T11:13:50;42.03;;;17.80;;
286;SDS011;127;48.770;9.212;2022-12-11T11:16:22;39.42;;;18.80;;
286;SDS011;127;48.770;9.212;2022-12-11T11:18:52;37.17;;;17.13;;
286;SDS011;127;48.770;9.212;2022-12-11T11:21:23;34.70;;;16.83;;
286;SDS011;127;48.770;9.212;2022-12-11T11:23:54;33.78;;;16.52;;
286;SDS011;127;48.770;9.212;2022-12-11T11:26:23;37.97;;;17.10;;
286;SDS011;127;48.770;9.212;2022-12-11T11:28:52;41.80;;;19.00;;
286;SDS011;127;48.770;9.212;2022-12-11T11:31:33;39.50;;;17.17;;
286;SDS011;127;48.770;9.212;2022-12-11T11:34:04;36.05;;;17.33;;
286;SDS011;127;48.770;9.212;2022-12-11T11:36:35;39.15;;;17.08;;
286;SDS011;127;48.770;9.212;2022-12-11T11:39:12;42.22;;;18.38;;
286;SDS011;127;48.770;9.212;2022-12-11T11:41:51;35.10;;;16.75;;
286;SDS011;127;48.770;9.212;2022-12-11T11:44:26;34.92;;;16.08;;
286;SDS011;127;48.770;9.212;2022-12-11T11:47:04;39.85;;;16.60;;
286;SDS011;127;48.770;9.212;2022-12-11T11:49:43;36.40;;;16.92;;
286;SDS011;127;48.770;9.212;2022-12-11T11:52:20;37.35;;;17.13;;
286;SDS011;127;48.770;9.212;2022-12-11T11:54:56;38.08;;;17.02;;
286;SDS011;127;48.770;9.212;2022-12-11T11:57:34;33.72;;;15.20;;
286;SDS011;127;48.770;9.212;2022-12-11T12:00:17;35.28;;;16.77;;
286;SDS011;127;48.770;9.212;2022-12-11T12:02:50;36.20;;;16.30;;
286;SDS011;127;48.770;9.212;2022-12-11T12:05:24;36.92;;;15.82;;
286;SDS011;127;48.770;9.212;2022-12-11T12:08:00;30.02;;;14.98;;
286;SDS011;127;48.770;9.212;2022-12-11T12:10:39;33.58;;;15.82;;
286;SDS011;127;48.770;9.212;2022-12-11T12:13:16;37.33;;;15.70;;
286;SDS011;127;48.770;9.212;2022-12-11T12:15:53;37.28;;;16.00;;
286;SDS011;127;48.770;9.212;2022-12-11T12:18:30;33.55;;;16.95;;
286;SDS011;127;48.770;9.212;2022-12-11T12:21:08;34.97;;;16.75;;
286;SDS011;127;48.770;9.212;2022-12-11T12:23:56;38.67;;;17.52;;
286;SDS011;127;48.770;9.212;2022-12-11T12:26:35;33.70;;;15.85;;
286;SDS011;127;48.770;9.212;2022-12-11T12:29:12;34.83;;;16.25;;
286;SDS011;127;48.770;9.212;2022-12-11T12:31:57;35.30;;;16.55;;
286;SDS011;127;48.770;9.212;2022-12-11T12:34:54;40.10;;;19.50;;
286;SDS011;127;48.770;9.212;2022-12-11T12:37:37;40.63;;;16.58;;
286;SDS011;127;48.770;9.212;2022-12-11T12:40:16;40.92;;;19.00;;
286;SDS011;127;48.770;9.212;2022-12-11T12:42:53;49.90;;;18.50;;
286;SDS011;127;48.770;9.212;2022-12-11T12:45:33;46.90;;;19.85;;
286;SDS011;127;48.770;9.212;2022-12-11T12:48:06;36.58;;;17.25;;
286;SDS011;127;48.770;9.212;2022-12-11T12:54:02;45.45;;;19.95;;
286;SDS011;127;48.770;9.212;2022-12-11T12:56:33;45.78;;;19.88;;
286;SDS011;127;48.770;9.212;2022-12-11T12:59:06;44.85;;;18.67;;
286;SDS011;127;48.770;9.212;2022-12-11T13:01:48;44.83;;;18.42;;
286;SDS011;127;48.770;9.212;2022-12-11T13:07:14;38.20;;;17.88;;
286;SDS011;127;48.770;9.212;2022-12-11T13:10:00;41.90;;;18.83;;
286;SDS011;127;48.770;9.212;2022-12-11T13:12:39;35.30;;;17.05;;
286;SDS011;127;48.770;9.212;2022-12-11T13:15:25;34.10;;;16.10;;
286;SDS011;127;48.770;9.212;2022-12-11T13:17:59;40.17;;;16.85;;
286;SDS011;127;48.770;9.212;2022-12-11T13:20:30;36.72;;;18.20;;
286;SDS011;127;48.770;9.212;2022-12-11T13:23:13;38.03;;;20.08;;
286;SDS011;127;48.770;9.212;2022-12-11T13:25:46;39.08;;;16.33;;
286;SDS011;127;48.770;9.212;2022-12-11T13:28:21;40.67;;;17.30;;
286;SDS011;127;48.770;9.212;2022-12-11T13:30:56;36.28;;;18.13;;
286;SDS011;127;48.770;9.212;2022-12-11T13:33:37;36.65;;;16.90;;
286;SDS011;127;48.770;9.212;2022-12-11T13:39:03;44.47;;;18.65;;
286;SDS011;127;48.770;9.212;2022-12-11T13:41:35;37.65;;;18.30;;
286;SDS011;127;48.770;9.212;2022-12-11T13:44:05;39.83;;;18.30;;
286;SDS011;127;48.770;9.212;2022-12-11T13:46:35;39.45;;;19.00;;
286;SDS011;127;48.770;9.212;2022-12-11T13:49:17;39.40;;;17.25;;
286;SDS011;127;48.770;9.212;2022-12-11T13:51:55;43.63;;;18.45;;
286;SDS011;127;48.770;9.212;2022-12-11T13:54:28;54.63;;;21.02;;
286;SDS011;127;48.770;9.212;2022-12-11T13:57:00;49.15;;;20.00;;
286;SDS011;127;48.770;9.212;2022-12-11T13:59:32;53.05;;;21.45;;
286;SDS011;127;48.770;9.212;2022-12-11T14:02:11;48.83;;;21.27;;
286;SDS011;127;48.770;9.212;2022-12-11T14:04:44;59.33;;;23.13;;
286;SDS011;127;48.770;9.212;2022-12-11T14:07:19;47.67;;;20.73;;
286;SDS011;127;48.770;9.212;2022-12-11T14:09:54;53.83;;;21.30;;
286;SDS011;127;48.770;9.212;2022-12-11T14:12:29;60.17;;;22.92;;
286;SDS011;127;48.770;9.212;2022-12-11T14:14:59;55.70;;;23.55;;
286;SDS011;127;48.770;9.212;2022-12-11T14:17:31;57.35;;;23.55;;
286;SDS011;127;48.770;9.212;2022-12-11T14:20:02;64.35;;;24.88;;
286;SDS011;127;48.770;9.212;2022-12-11T14:22:34;53.15;;;23.10;;
286;SDS011;127;48.770;9.212;2022-12-11T14:25:12;51.20;;;22.13;;
286;SDS011;127;48.770;9.212;2022-12-11T14:27:46;61.97;;;23.50;;
286;SDS011;127;48.770;9.212;2022-12-11T14:30:20;62.20;;;26.00;;
286;SDS011;127;48.770;9.212;2022-12-11T14:32:50;56.13;;;23.77;;
286;SDS011;127;48.770;9.212;2022-12-11T14:35:24;65.75;;;26.17;;
286;SDS011;127;48.770;9.212;2022-12-11T14:37:55;64.40;;;25.52;;
286;SDS011;127;48.770;9.212;2022-12-11T14:40:32;65.28;;;24.92;;
286;SDS011;127;48.770;9.212;2022-12-11T14:43:06;62.80;;;25.30;;
286;SDS011;127;48.770;9.212;2022-12-11T14:45:39;69.80;;;24.90;;
286;SDS011;127;48.770;9.212;2022-12-11T14:48:12;53.92;;;21.88;;
286;SDS011;127;48.770;9.212;2022-12-11T14:50:46;58.88;;;23.52;;
286;SDS011;127;48.770;9.212;2022-12-11T14:53:18;61.72;;;23.75;;
286;SDS011;127;48.770;9.212;2022-12-11T14:55:52;60.75;;;25.40;;
286;SDS011;127;48.770;9.212;2022-12-11T14:58:23;61.40;;;25.45;;
286;SDS011;127;48.770;9.212;2022-12-11T15:00:56;60.05;;;23.67;;
286;SDS011;127;48.770;9.212;2022-12-11T15:03:29;58.92;;;23.15;;
286;SDS011;127;48.770;9.212;2022-12-11T15:06:00;59.00;;;24.55;;
286;SDS011;127;48.770;9.212;2022-12-11T15:08:30;66.55;;;24.77;;
286;SDS011;127;48.770;9.212;2022-12-11T15:11:04;58.38;;;23.63;;
286;SDS011;127;48.770;9.212;2022-12-11T15:13:36;70.45;;;26.60;;
286;SDS011;127;48.770;9.212;2022-12-11T15:16:07;65.70;;;25.73;;
286;SDS011;127;48.770;9.212;2022-12-11T15:18:36;64.18;;;25.13;;
286;SDS011;127;48.770;9.212;2022-12-11T15:21:08;67.13;;;24.85;;
286;SDS011;127;48.770;9.212;2022-12-11T15:23:45;62.50;;;24.60;;
286;SDS011;127;48.770;9.212;2022-12-11T15:26:31;62.63;;;25.38;;
286;SDS011;127;48.770;9.212;2022-12-11T15:29:02;65.05;;;24.10;;
286;SDS011;127;48.770;9.212;2022-12-11T15:31:32;69.18;;;23.45;;
286;SDS011;127;48.770;9.212;2022-12-11T15:34:01;76.32;;;25.05;;
286;SDS011;127;48.770;9.212;2022-12-11T15:36:31;61.47;;;23.83;;
286;SDS011;127;48.770;9.212;2022-12-11T15:39:02;59.33;;;23.23;;
286;SDS011;127;48.770;9.212;2022-12-11T15:41:35;61.40;;;24.65;;
286;SDS011;127;48.770;9.212;2022-12-11T15:44:04;66.55;;;25.40;;
286;SDS011;127;48.770;9.212;2022-12-11T15:46:34;66.90;;;24.98;;
286;SDS011;127;48.770;9.212;2022-12-11T15:49:05;67.50;;;23.85;;
286;SDS011;127;48.770;9.212;2022-12-11T15:51:39;61.33;;;22.27;;
286;SDS011;127;48.770;9.212;2022-12-11T15:54:07;71.50;;;25.48;;
286;SDS011;127;48.770;9.212;2022-12-11T15:56:39;57.75;;;23.63;;
286;SDS011;127;48.770;9.212;2022-12-11T15:59:08;69.80;;;23.83;;
286;SDS011;127;48.770;9.212;2022-12-11T16:01:52;67.47;;;25.05;;
286;SDS011;127;48.770;9.212;2022-12-11T16:04:22;68.15;;;24.40;;
286;SDS011;127;48.770;9.212;2022-12-11T16:06:51;64.43;;;23.48;;
286;SDS011;127;48.770;9.212;2022-12-11T16:09:20;61.45;;;24.55;;
286;SDS011;127;48.770;9.212;2022-12-11T16:11:51;64.30;;;24.80;;
286;SDS011;127;48.770;9.212;2022-12-11T16:14:20;67.68;;;24.25;;
286;SDS011;127;48.770;9.212;2022-12-11T16:16:48;75.57;;;27.20;;
286;SDS011;127;48.770;9.212;2022-12-11T16:19:19;69.57;;;24.77;;
286;SDS011;127;48.770;9.212;2022-12-11T16:21:47;68.72;;;25.17;;
286;SDS011;127;48.770;9.212;2022-12-11T16:24:16;69.88;;;26.33;;
286;SDS011;127;48.770;9.212;2022-12-11T16:26:45;89.82;;;30.67;;
286;SDS011;127;48.770;9.212;2022-12-11T16:29:16;61.17;;;24.65;;
286;SDS011;127;48.770;9.212;2022-12-11T16:31:45;89.03;;;28.25;;
286;SDS011;127;48.770;9.212;2022-12-11T16:34:14;93.50;;;31.45;;
286;SDS011;127;48.770;9.212;2022-12-11T16:36:42;77.47;;;27.20;;